Time;durP1;ratioP1;P1;durP2;ratioP2;P2;SDS_P1;SDS_P2;PMS_P1;PMS_P2;Temp;Humidity;BMP_temperature;BMP_pressure;BME280_temperature;BME280_humidity;BME280_pressure;Samples;Min_cycle;Max_cycle;Signal;HPM_P1;HPM_P2
2022/11/20 00:01:13;;;;;;;0.50;0.47;;;;;;;16.66;100.00;95009.72;5111742;28;20475;-53
2022/11/20 00:03:42;;;;;;;4.10;0.30;;;;;;;16.59;100.00;95012.09;5114163;28;20431;-54
2022/11/20 00:06:12;;;;;;;2.60;0.50;;;;;;;16.72;100.00;95003.13;5115233;28;20434;-54
2022/11/20 00:08:42;;;;;;;0.50;0.30;;;;;;;16.81;100.00;95018.09;5115745;27;20442;-54
2022/11/20 00:11:12;;;;;;;0.97;0.30;;;;;;;16.76;100.00;95022.78;5116050;28;20508;-54
2022/11/20 00:13:43;;;;;;;0.40;0.37;;;;;;;16.76;100.00;95012.09;5115738;28;20426;-54
2022/11/20 00:16:13;;;;;;;0.40;0.20;;;;;;;16.83;100.00;95021.22;5115678;28;20971;-54
2022/11/20 00:18:43;;;;;;;1.07;0.97;;;;;;;16.77;100.00;95021.72;5115936;28;20426;-54
2022/11/20 00:21:14;;;;;;;0.80;0.40;;;;;;;16.73;100.00;95018.88;5115420;28;20432;-54
2022/11/20 00:23:44;;;;;;;0.50;0.40;;;;;;;16.74;100.00;95016.97;5115550;28;20478;-54
2022/11/20 00:26:14;;;;;;;0.50;0.50;;;;;;;16.28;100.00;94945.31;5115110;28;20438;-54
2022/11/20 00:28:44;;;;;;;0.43;0.33;;;;;;;16.62;100.00;95014.16;5115374;28;20431;-54
2022/11/20 00:31:16;;;;;;;0.40;0.30;;;;;;;16.78;100.00;95015.25;5115315;28;20442;-54
2022/11/20 00:33:45;;;;;;;0.40;0.30;;;;;;;16.84;100.00;95011.31;5114775;28;20438;-54
2022/11/20 00:36:15;;;;;;;0.40;0.30;;;;;;;16.91;100.00;95003.59;5115574;28;20437;-54
2022/11/20 00:38:45;;;;;;;0.60;0.43;;;;;;;17.06;100.00;94997.75;5115373;28;20434;-54
2022/11/20 00:41:16;;;;;;;0.50;0.50;;;;;;;16.92;100.00;94997.94;5115583;28;20431;-54
2022/11/20 00:43:44;;;;;;;0.40;0.30;;;;;;;17.05;100.00;95001.53;5115264;28;20459;-54
2022/11/20 00:46:15;;;;;;;0.67;0.30;;;;;;;16.83;100.00;95005.16;5114739;28;20919;-54
2022/11/20 00:48:44;;;;;;;1.80;0.60;;;;;;;16.75;100.00;95005.16;5115049;27;20431;-54
2022/11/20 00:51:14;;;;;;;1.27;0.40;;;;;;;16.06;100.00;94994.38;5114968;28;20432;-54
2022/11/20 00:53:42;;;;;;;6.33;1.40;;;;;;;15.67;100.00;95010.41;5115038;28;20908;-54
2022/11/20 00:56:13;;;;;;;0.40;0.30;;;;;;;15.93;100.00;94997.94;5115220;28;20442;-54
2022/11/20 00:58:43;;;;;;;0.50;0.40;;;;;;;16.01;100.00;95001.72;5114831;28;20519;-54
2022/11/20 01:01:13;;;;;;;0.40;0.30;;;;;;;16.35;100.00;94996.44;5114771;28;20437;-53
2022/11/20 01:03:44;;;;;;;0.50;0.50;;;;;;;16.17;100.00;94992.97;5115116;28;20556;-55
2022/11/20 01:06:14;;;;;;;0.60;0.53;;;;;;;16.00;100.00;94998.28;5115187;28;20435;-54
2022/11/20 01:08:43;;;;;;;0.40;0.37;;;;;;;15.96;100.00;95002.66;5114697;28;20463;-54
2022/11/20 01:11:16;;;;;;;0.50;0.30;;;;;;;15.89;100.00;95013.00;5113531;28;20513;-54
2022/11/20 01:13:45;;;;;;;3.30;1.33;;;;;;;15.55;100.00;95010.22;5114182;28;20517;-54
2022/11/20 01:16:15;;;;;;;0.40;0.40;;;;;;;15.31;100.00;94933.06;5114730;28;20426;-53
2022/11/20 01:18:46;;;;;;;0.40;0.30;;;;;;;16.10;100.00;95019.38;5114741;28;20430;-53
2022/11/20 01:21:17;;;;;;;0.50;0.40;;;;;;;15.48;100.00;95029.34;5114360;28;21028;-53
2022/11/20 01:23:46;;;;;;;0.80;0.40;;;;;;;15.54;100.00;95028.09;5114346;28;20438;-53
2022/11/20 01:26:19;;;;;;;0.40;0.30;;;;;;;15.73;100.00;95020.66;5114171;28;20457;-53
2022/11/20 01:28:48;;;;;;;0.50;0.30;;;;;;;15.96;100.00;95018.72;5114237;28;20521;-53
2022/11/20 01:31:19;;;;;;;0.40;0.30;;;;;;;15.87;100.00;95010.66;5114393;28;20521;-54
2022/11/20 01:33:50;;;;;;;0.40;0.30;;;;;;;15.63;100.00;94998.78;5114278;28;20430;-53
2022/11/20 01:36:20;;;;;;;0.80;0.77;;;;;;;15.70;100.00;95010.59;5113998;27;20442;-53
2022/11/20 01:38:48;;;;;;;7.43;1.03;;;;;;;15.77;100.00;94988.75;5113998;28;20427;-53
2022/11/20 01:44:01;;;;;;;0.40;0.30;;;;;;;15.72;100.00;94980.88;5113937;28;20438;-53
2022/11/20 01:46:29;;;;;;;0.40;0.30;;;;;;;15.98;100.00;94973.75;5112814;28;20479;-53
2022/11/20 01:49:02;;;;;;;0.40;0.30;;;;;;;15.98;100.00;94989.78;5113868;28;20519;-53
2022/11/20 01:51:36;;;;;;;0.40;0.30;;;;;;;15.71;100.00;94984.66;5113987;27;20504;-53
2022/11/20 01:54:07;;;;;;;0.80;0.80;;;;;;;15.57;100.00;94986.63;5113381;28;20427;-53
2022/11/20 01:56:42;;;;;;;0.40;0.30;;;;;;;15.39;100.00;94969.72;5114173;28;20430;-53
2022/11/20 01:59:14;;;;;;;4.33;0.40;;;;;;;15.30;100.00;94968.91;5114153;27;20427;-53
2022/11/20 02:01:42;;;;;;;0.40;0.30;;;;;;;15.28;100.00;94968.41;5113713;28;20450;-53
2022/11/20 02:04:11;;;;;;;0.40;0.30;;;;;;;15.38;100.00;94970.81;5113966;28;20430;-53
2022/11/20 02:06:44;;;;;;;2.60;0.30;;;;;;;15.07;100.00;94882.75;5113190;28;20426;-53
2022/11/20 02:09:13;;;;;;;0.40;0.30;;;;;;;15.55;100.00;94949.56;5113519;28;20434;-53
2022/11/20 02:11:42;;;;;;;0.50;0.47;;;;;;;15.74;100.00;94947.41;5113873;28;20431;-53
2022/11/20 02:14:10;;;;;;;0.40;0.40;;;;;;;15.77;100.00;94946.81;5113529;28;20431;-53
2022/11/20 02:16:45;;;;;;;0.30;0.20;;;;;;;15.52;100.00;94934.16;5113580;28;20421;-53
2022/11/20 02:19:23;;;;;;;0.60;0.60;;;;;;;15.41;100.00;94940.81;5113579;28;20998;-53
2022/11/20 02:22:01;;;;;;;0.60;0.60;;;;;;;15.51;100.00;94947.81;5113362;28;20473;-53
2022/11/20 02:24:31;;;;;;;0.40;0.30;;;;;;;14.69;100.00;94953.63;5112059;28;20426;-53
2022/11/20 02:27:03;;;;;;;0.40;0.30;;;;;;;14.82;100.00;94950.09;5112461;28;20465;-54
2022/11/20 02:29:36;;;;;;;2.87;2.73;;;;;;;14.72;100.00;94938.88;5113614;28;20778;-53
2022/11/20 02:32:04;;;;;;;0.40;0.30;;;;;;;15.01;100.00;94947.22;5113011;28;20869;-53
2022/11/20 02:34:33;;;;;;;0.40;0.40;;;;;;;15.27;100.00;94943.59;5112726;28;20426;-53
2022/11/20 02:37:02;;;;;;;0.40;0.20;;;;;;;15.39;100.00;94942.22;5113267;28;20923;-53
2022/11/20 02:39:32;;;;;;;0.47;0.30;;;;;;;15.67;100.00;94951.63;5113139;28;20435;-53
2022/11/20 02:42:02;;;;;;;0.80;0.80;;;;;;;15.54;100.00;94949.84;5112980;28;20563;-53
2022/11/20 02:44:30;;;;;;;0.40;0.30;;;;;;;15.57;100.00;94947.38;5113029;27;20499;-53
2022/11/20 02:46:58;;;;;;;0.40;0.40;;;;;;;15.60;100.00;94945.97;5113104;28;20433;-53
2022/11/20 02:49:27;;;;;;;0.50;0.40;;;;;;;15.78;100.00;94942.25;5112920;28;20922;-53
2022/11/20 02:51:55;;;;;;;0.40;0.40;;;;;;;15.76;100.00;94952.47;5112807;28;20957;-53
2022/11/20 02:54:23;;;;;;;0.50;0.50;;;;;;;15.62;100.00;94927.72;5112529;28;20483;-53
2022/11/20 02:56:53;;;;;;;0.30;0.20;;;;;;;15.72;100.00;94938.13;5112768;28;20434;-53
2022/11/20 02:59:22;;;;;;;0.40;0.20;;;;;;;15.48;100.00;94943.09;5112844;27;20431;-53
2022/11/20 03:01:50;;;;;;;0.40;0.30;;;;;;;15.33;100.00;94940.81;5112170;28;20471;-53
2022/11/20 03:04:19;;;;;;;0.40;0.30;;;;;;;15.31;100.00;94938.41;5112833;28;20429;-53
2022/11/20 03:06:47;;;;;;;0.63;0.63;;;;;;;15.48;100.00;94933.19;5112559;28;20450;-53
2022/11/20 03:09:15;;;;;;;1.93;0.50;;;;;;;15.23;100.00;94950.63;5112221;28;20442;-53
2022/11/20 03:11:43;;;;;;;3.13;0.40;;;;;;;15.04;100.00;94935.94;5112542;28;20517;-53
2022/11/20 03:14:14;;;;;;;1.03;0.40;;;;;;;15.22;100.00;94925.06;5112803;28;20787;-53
2022/11/20 03:16:42;;;;;;;0.57;0.57;;;;;;;15.04;100.00;94925.25;5112327;28;20514;-53
2022/11/20 03:19:10;;;;;;;0.40;0.20;;;;;;;15.19;100.00;94925.66;5112546;28;20420;-53
2022/11/20 03:21:38;;;;;;;0.40;0.30;;;;;;;15.15;100.00;94908.66;5112567;28;20554;-53
2022/11/20 03:24:07;;;;;;;0.80;0.53;;;;;;;15.13;100.00;94918.06;5112597;28;20434;-53
2022/11/20 03:26:35;;;;;;;0.40;0.20;;;;;;;15.23;100.00;94928.47;5112113;28;20473;-53
2022/11/20 03:29:05;;;;;;;10.93;0.50;;;;;;;15.26;100.00;94934.00;5112581;28;20438;-53
2022/11/20 03:31:37;;;;;;;0.53;0.53;;;;;;;15.23;100.00;94931.94;5112234;28;20649;-52
2022/11/20 03:34:05;;;;;;;0.77;0.77;;;;;;;15.30;100.00;94928.06;5112202;28;20441;-52
2022/11/20 03:36:34;;;;;;;0.40;0.30;;;;;;;15.35;100.00;94930.59;5112868;28;20870;-53
2022/11/20 03:39:02;;;;;;;0.40;0.27;;;;;;;15.53;100.00;94935.72;5116486;28;20973;-53
2022/11/20 03:41:32;;;;;;;0.47;0.30;;;;;;;15.65;100.00;94932.47;5116391;27;20479;-53
2022/11/20 03:44:02;;;;;;;0.40;0.40;;;;;;;15.61;100.00;94926.19;5116486;28;20521;-53
2022/11/20 03:46:31;;;;;;;0.40;0.20;;;;;;;15.68;100.00;94921.94;5116356;28;20435;-53
2022/11/20 03:49:01;;;;;;;0.60;0.60;;;;;;;15.64;100.00;94920.97;5116366;28;20915;-53
2022/11/20 03:51:31;;;;;;;0.60;0.57;;;;;;;15.67;100.00;94930.25;5116103;28;20435;-53
2022/11/20 03:54:01;;;;;;;0.63;0.60;;;;;;;15.66;100.00;94944.72;5115570;28;20428;-53
2022/11/20 03:56:31;;;;;;;6.00;0.40;;;;;;;15.87;100.00;94935.03;5116196;28;20829;-53
2022/11/20 03:58:59;;;;;;;0.97;0.40;;;;;;;15.33;100.00;94860.69;5115605;28;20941;-53
2022/11/20 04:01:30;;;;;;;0.40;0.30;;;;;;;15.68;100.00;94915.81;5116599;27;20470;-53
2022/11/20 04:03:59;;;;;;;2.20;0.40;;;;;;;15.97;100.00;94940.09;5115962;28;20431;-53
2022/11/20 04:06:30;;;;;;;3.20;0.60;;;;;;;15.21;100.00;94861.28;5115687;28;20511;-53
2022/11/20 04:08:59;;;;;;;0.40;0.30;;;;;;;15.28;100.00;94849.03;5115741;28;20532;-52
2022/11/20 04:11:30;;;;;;;0.40;0.20;;;;;;;15.98;100.00;94941.66;5116127;28;20441;-53
2022/11/20 04:14:00;;;;;;;0.50;0.40;;;;;;;15.57;100.00;94885.13;5115114;28;20436;-55
2022/11/20 04:16:31;;;;;;;0.40;0.30;;;;;;;16.09;100.00;94937.56;5115751;28;20435;-54
2022/11/20 04:19:01;;;;;;;0.70;0.70;;;;;;;15.99;100.00;94937.88;5114940;28;20434;-54
2022/11/20 04:21:32;;;;;;;0.60;0.60;;;;;;;16.09;100.00;94937.56;5115512;28;20461;-53
2022/11/20 04:24:00;;;;;;;0.40;0.20;;;;;;;16.13;100.00;94932.41;5114963;28;20422;-55
2022/11/20 04:26:30;;;;;;;0.40;0.30;;;;;;;16.14;100.00;94939.34;5115025;28;20528;-55
2022/11/20 04:29:01;;;;;;;0.40;0.30;;;;;;;16.16;100.00;94943.28;5115752;28;20442;-55
2022/11/20 04:31:31;;;;;;;0.40;0.30;;;;;;;16.22;100.00;94931.31;5115586;28;20426;-55
2022/11/20 04:34:01;;;;;;;0.40;0.30;;;;;;;16.25;100.00;94925.34;5115520;28;20437;-54
2022/11/20 04:36:31;;;;;;;0.50;0.30;;;;;;;16.23;100.00;94908.81;5115464;28;20433;-54
2022/11/20 04:39:01;;;;;;;0.40;0.30;;;;;;;16.14;100.00;94896.56;5115106;28;20437;-55
2022/11/20 04:41:31;;;;;;;0.40;0.30;;;;;;;16.21;100.00;94918.25;5115298;28;20561;-54
2022/11/20 04:44:03;;;;;;;1.53;1.53;;;;;;;16.13;100.00;94916.38;5115367;28;20434;-54
2022/11/20 04:46:33;;;;;;;0.80;0.57;;;;;;;16.14;100.00;94915.28;5115613;28;20854;-54
2022/11/20 04:49:01;;;;;;;1.17;0.70;;;;;;;15.63;100.00;94833.16;5114425;27;20439;-54
2022/11/20 04:51:31;;;;;;;0.53;0.53;;;;;;;16.09;100.00;94918.09;5114720;28;20422;-55
2022/11/20 04:54:00;;;;;;;0.43;0.30;;;;;;;16.07;100.00;94913.03;5115040;28;20526;-55
2022/11/20 04:56:29;;;;;;;0.60;0.53;;;;;;;16.00;100.00;94880.66;5115277;28;20435;-54
2022/11/20 04:59:02;;;;;;;0.77;0.57;;;;;;;16.07;100.00;94922.94;5114454;28;20435;-54
2022/11/20 05:01:32;;;;;;;0.70;0.70;;;;;;;15.76;100.00;94904.38;5114963;28;20465;-55
2022/11/20 05:04:00;;;;;;;0.50;0.50;;;;;;;15.92;100.00;94924.19;5115012;28;20445;-55
2022/11/20 05:06:29;;;;;;;0.50;0.43;;;;;;;16.06;100.00;94937.44;5115488;28;20528;-54
2022/11/20 05:08:59;;;;;;;0.40;0.30;;;;;;;16.12;100.00;94928.16;5114121;28;20628;-53
2022/11/20 05:11:28;;;;;;;0.50;0.40;;;;;;;16.03;100.00;94884.59;5115041;28;20502;-54
2022/11/20 05:14:00;;;;;;;0.40;0.20;;;;;;;16.29;100.00;94931.63;5114838;28;20431;-54
2022/11/20 05:16:28;;;;;;;0.60;0.50;;;;;;;16.11;100.00;94927.38;5114890;28;20454;-54
2022/11/20 05:18:57;;;;;;;1.63;0.70;;;;;;;16.29;100.00;94936.22;5114744;28;20480;-54
2022/11/20 05:21:25;;;;;;;0.40;0.30;;;;;;;16.33;100.00;94934.47;5114627;28;20538;-54
2022/11/20 05:23:54;;;;;;;0.40;0.30;;;;;;;16.35;100.00;94932.25;5114795;28;20431;-54
2022/11/20 05:26:24;;;;;;;0.40;0.30;;;;;;;16.23;100.00;94922.19;5113396;28;20527;-54
2022/11/20 05:28:54;;;;;;;0.40;0.30;;;;;;;16.18;100.00;94919.69;5114102;28;20444;-54
2022/11/20 05:31:24;;;;;;;0.40;0.30;;;;;;;16.25;100.00;94924.53;5113755;28;20844;-54
2022/11/20 05:33:56;;;;;;;0.40;0.20;;;;;;;16.21;100.00;94927.06;5114056;28;20480;-54
2022/11/20 05:36:25;;;;;;;0.40;0.30;;;;;;;16.26;100.00;94918.09;5114083;28;20431;-54
2022/11/20 05:38:54;;;;;;;0.40;0.30;;;;;;;16.12;100.00;94925.47;5114321;28;21033;-54
2022/11/20 05:41:30;;;;;;;0.40;0.30;;;;;;;16.22;100.00;94935.88;5114141;28;20428;-55
2022/11/20 05:43:59;;;;;;;0.50;0.30;;;;;;;16.28;100.00;94937.28;5114549;28;20431;-54
2022/11/20 05:46:27;;;;;;;0.40;0.30;;;;;;;16.31;100.00;94939.34;5113949;28;20925;-54
2022/11/20 05:48:57;;;;;;;0.40;0.30;;;;;;;16.32;100.00;94943.56;5114449;28;20797;-55
2022/11/20 05:51:27;;;;;;;0.40;0.30;;;;;;;16.25;100.00;94920.00;5114507;28;20435;-54
2022/11/20 05:53:58;;;;;;;0.30;0.20;;;;;;;16.36;100.00;94945.34;5114300;28;20451;-55
2022/11/20 05:56:27;;;;;;;0.40;0.30;;;;;;;16.16;100.00;94948.63;5113213;28;20793;-55
2022/11/20 05:58:57;;;;;;;0.70;0.70;;;;;;;16.11;100.00;94956.00;5113831;28;20438;-55
2022/11/20 06:01:26;;;;;;;0.40;0.40;;;;;;;16.03;100.00;94956.75;5113798;28;20453;-53
2022/11/20 06:03:55;;;;;;;0.50;0.40;;;;;;;16.10;100.00;94957.88;5113789;28;20438;-54
2022/11/20 06:06:25;;;;;;;0.60;0.40;;;;;;;16.05;100.00;94959.91;5113659;28;20439;-55
2022/11/20 06:08:53;;;;;;;0.53;0.53;;;;;;;16.21;100.00;94961.84;5114039;28;20437;-55
2022/11/20 06:11:22;;;;;;;2.50;0.30;;;;;;;16.18;100.00;94973.16;5113652;28;20427;-55
2022/11/20 06:13:50;;;;;;;0.40;0.30;;;;;;;15.41;100.00;94871.38;5113864;28;20426;-56
2022/11/20 06:16:21;;;;;;;0.40;0.40;;;;;;;16.14;100.00;94976.78;5113972;28;20782;-55
2022/11/20 06:18:50;;;;;;;0.57;0.57;;;;;;;16.07;100.00;94957.69;5113686;28;20438;-56
2022/11/20 06:21:20;;;;;;;0.50;0.40;;;;;;;16.17;100.00;94966.22;5113422;28;20496;-55
2022/11/20 06:23:49;;;;;;;0.40;0.30;;;;;;;16.06;100.00;94961.50;5113604;28;20476;-55
2022/11/20 06:26:22;;;;;;;0.60;0.40;;;;;;;16.06;100.00;94956.94;5113315;28;20525;-55
2022/11/20 06:28:52;;;;;;;0.97;0.97;;;;;;;15.76;100.00;94894.44;5113041;28;20525;-55
2022/11/20 06:31:24;;;;;;;0.40;0.30;;;;;;;16.36;100.00;94958.72;5113202;28;20445;-55
2022/11/20 06:33:53;;;;;;;1.03;1.03;;;;;;;16.31;100.00;94953.50;5113296;28;20435;-55
2022/11/20 06:36:23;;;;;;;1.30;1.20;;;;;;;16.26;100.00;94964.38;5113515;28;20426;-54
2022/11/20 06:38:51;;;;;;;0.90;0.90;;;;;;;16.24;100.00;94958.50;5113377;28;20435;-56
2022/11/20 06:41:22;;;;;;;0.40;0.20;;;;;;;16.01;100.00;94951.75;5113097;28;20431;-55
2022/11/20 06:43:51;;;;;;;0.50;0.30;;;;;;;16.21;100.00;94956.50;5113173;28;20479;-54
2022/11/20 06:46:22;;;;;;;0.60;0.37;;;;;;;16.15;100.00;94957.72;5113281;28;20449;-54
2022/11/20 06:48:50;;;;;;;0.50;0.40;;;;;;;16.08;100.00;94945.91;5112941;28;20467;-54
2022/11/20 06:51:19;;;;;;;0.60;0.60;;;;;;;16.13;100.00;94949.25;5112976;28;20462;-54
2022/11/20 06:53:48;;;;;;;0.80;0.50;;;;;;;16.04;100.00;94951.09;5112730;28;20496;-54
2022/11/20 06:56:16;;;;;;;0.67;0.30;;;;;;;16.09;100.00;94955.53;5113208;28;20419;-55
2022/11/20 06:58:45;;;;;;;0.50;0.40;;;;;;;16.01;100.00;94932.25;5113082;28;20809;-55
2022/11/20 07:01:15;;;;;;;8.23;0.60;;;;;;;16.13;100.00;94951.91;5112849;28;20927;-55
2022/11/20 07:03:45;;;;;;;2.53;1.50;;;;;;;16.02;100.00;94955.97;5112653;28;20482;-55
2022/11/20 07:06:20;;;;;;;0.53;0.50;;;;;;;16.08;100.00;94964.63;5112625;28;20426;-54
2022/11/20 07:08:51;;;;;;;0.50;0.40;;;;;;;16.11;100.00;94966.69;5112639;28;20420;-53
2022/11/20 07:11:19;;;;;;;0.40;0.30;;;;;;;16.24;100.00;94971.13;5112475;28;20427;-55
2022/11/20 07:13:48;;;;;;;0.60;0.60;;;;;;;16.22;100.00;94950.03;5112658;28;20450;-55
2022/11/20 07:16:16;;;;;;;2.97;1.63;;;;;;;16.45;100.00;94956.81;5112892;28;20426;-54
2022/11/20 07:18:46;;;;;;;0.53;0.50;;;;;;;16.50;100.00;94969.25;5112644;28;20924;-55
2022/11/20 07:21:18;;;;;;;0.60;0.57;;;;;;;16.43;100.00;94984.97;5112408;28;20490;-55
2022/11/20 07:23:46;;;;;;;0.60;0.60;;;;;;;16.06;100.00;94890.09;5112172;28;20474;-55
2022/11/20 07:26:14;;;;;;;0.60;0.40;;;;;;;16.60;100.00;94973.50;5111624;28;20431;-55
2022/11/20 07:28:45;;;;;;;1.70;0.67;;;;;;;16.50;100.00;94966.56;5111987;28;21180;-55
2022/11/20 07:31:14;;;;;;;0.43;0.43;;;;;;;16.33;100.00;94970.03;5112516;28;20438;-55
2022/11/20 07:33:48;;;;;;;1.87;0.73;;;;;;;16.40;100.00;94967.66;5112169;28;20432;-55
2022/11/20 07:36:16;;;;;;;1.17;0.83;;;;;;;16.46;100.00;94963.75;5111820;28;20957;-55
2022/11/20 07:38:45;;;;;;;21.23;0.73;;;;;;;16.50;100.00;94971.91;5112319;28;20432;-55
2022/11/20 07:41:13;;;;;;;0.67;0.67;;;;;;;16.49;100.00;94984.50;5112323;28;20446;-55
2022/11/20 07:43:42;;;;;;;0.80;0.80;;;;;;;16.50;100.00;94980.72;5111955;28;20542;-55
2022/11/20 07:46:10;;;;;;;0.50;0.50;;;;;;;16.46;100.00;94995.84;5111993;28;20432;-55
2022/11/20 07:48:38;;;;;;;0.57;0.47;;;;;;;16.44;100.00;94981.97;5112002;28;20426;-55
2022/11/20 07:51:08;;;;;;;0.70;0.67;;;;;;;16.48;100.00;94971.44;5110635;28;20462;-55
2022/11/20 07:53:36;;;;;;;5.90;0.43;;;;;;;16.51;100.00;94970.81;5112124;28;20467;-55
2022/11/20 07:56:05;;;;;;;0.40;0.30;;;;;;;16.63;100.00;94967.53;5111208;28;20504;-55
2022/11/20 07:58:34;;;;;;;0.47;0.47;;;;;;;16.70;100.00;94965.16;5111231;28;20420;-55
2022/11/20 08:01:06;;;;;;;0.50;0.50;;;;;;;16.68;100.00;94962.81;5110355;28;20997;-55
2022/11/20 08:03:37;;;;;;;1.60;0.70;;;;;;;16.70;100.00;94965.16;5109964;28;21007;-55
2022/11/20 08:06:06;;;;;;;1.53;0.50;;;;;;;16.73;100.00;94962.66;5110912;28;20419;-55
2022/11/20 08:08:35;;;;;;;0.60;0.60;;;;;;;16.65;100.00;94960.78;5110564;28;20442;-55
2022/11/20 08:14:12;;;;;;;0.40;0.40;;;;;;;16.76;100.00;94972.75;5084265;28;21048;-55
2022/11/20 08:16:41;;;;;;;0.67;0.63;;;;;;;16.78;100.00;94970.53;5111297;28;20450;-55
2022/11/20 08:19:09;;;;;;;0.97;0.97;;;;;;;16.87;100.00;94968.66;5110918;28;20922;-55
2022/11/20 08:21:38;;;;;;;0.73;0.50;;;;;;;16.93;100.00;94962.00;5110873;28;20435;-56
2022/11/20 08:24:08;;;;;;;0.80;0.80;;;;;;;16.94;100.00;94976.19;5112131;28;20499;-55
2022/11/20 08:26:37;;;;;;;0.50;0.50;;;;;;;17.08;100.00;94964.19;5114887;28;20883;-55
2022/11/20 08:29:06;;;;;;;0.43;0.33;;;;;;;17.07;100.00;94962.63;5114858;28;20466;-54
2022/11/20 08:31:35;;;;;;;1.27;1.00;;;;;;;16.95;100.00;94942.97;5114610;28;20430;-55
2022/11/20 08:34:03;;;;;;;3.17;1.83;;;;;;;17.03;100.00;94958.22;5114818;28;20416;-55
2022/11/20 08:36:36;;;;;;;0.93;0.83;;;;;;;17.15;100.00;94959.13;5114691;28;20428;-54
2022/11/20 08:39:04;;;;;;;0.80;0.80;;;;;;;17.32;100.00;94955.63;5114675;28;20526;-55
2022/11/20 08:41:34;;;;;;;4.63;0.97;;;;;;;17.49;100.00;94952.09;5114668;28;20420;-55
2022/11/20 08:44:06;;;;;;;0.97;0.97;;;;;;;17.45;100.00;94953.84;5114773;28;21012;-56
2022/11/20 08:46:36;;;;;;;0.40;0.30;;;;;;;17.39;100.00;94960.50;5114594;28;20429;-55
2022/11/20 08:49:05;;;;;;;0.97;0.83;;;;;;;17.46;100.00;94958.88;5114909;28;20557;-55
2022/11/20 08:51:34;;;;;;;0.40;0.30;;;;;;;17.71;100.00;94971.44;5114340;28;20961;-54
2022/11/20 08:54:02;;;;;;;2.83;0.40;;;;;;;17.81;100.00;94964.16;5114559;28;20423;-55
2022/11/20 08:56:31;;;;;;;11.30;1.00;;;;;;;17.48;100.00;94958.59;5114305;28;20612;-55
2022/11/20 08:59:01;;;;;;;1.47;1.37;;;;;;;17.61;100.00;94950.34;5114112;28;20448;-55
2022/11/20 09:01:49;;;;;;;0.67;0.67;;;;;;;17.76;100.00;94951.69;5114093;28;20451;-55
2022/11/20 09:04:18;;;;;;;1.17;1.07;;;;;;;17.99;100.00;94944.94;5114468;27;20570;-55
2022/11/20 09:06:50;;;;;;;0.80;0.80;;;;;;;17.78;100.00;94939.53;5114121;28;20416;-55
2022/11/20 09:09:19;;;;;;;0.40;0.20;;;;;;;17.84;100.00;94947.41;5114253;28;20418;-55
2022/11/20 09:11:49;;;;;;;0.70;0.70;;;;;;;17.95;100.00;94938.69;5114033;28;20452;-55
2022/11/20 09:14:19;;;;;;;0.60;0.57;;;;;;;18.02;100.00;94940.84;5114359;28;20423;-56
2022/11/20 09:16:47;;;;;;;0.50;0.40;;;;;;;17.91;100.00;94937.75;5113862;28;20451;-55
2022/11/20 09:19:16;;;;;;;14.67;1.00;;;;;;;17.77;100.00;94937.97;5114104;28;20428;-55
2022/11/20 09:22:04;;;;;;;1.97;0.70;;;;;;;18.04;100.00;94931.34;5113676;28;21010;-56
2022/11/20 09:24:32;;;;;;;0.60;0.30;;;;;;;18.07;100.00;94935.28;5113781;28;20492;-56
2022/11/20 09:27:03;;;;;;;1.83;0.97;;;;;;;18.18;100.00;94925.75;5113562;28;20933;-55
2022/11/20 09:29:33;;;;;;;0.40;0.30;;;;;;;18.30;100.00;94920.47;5113689;28;20920;-55
2022/11/20 09:32:01;;;;;;;0.50;0.50;;;;;;;18.12;100.00;94930.53;5113582;27;20421;-55
2022/11/20 09:34:29;;;;;;;0.63;0.37;;;;;;;17.87;100.00;94925.31;5113090;28;20442;-55
2022/11/20 09:36:57;;;;;;;1.13;1.13;;;;;;;18.07;100.00;94916.50;5113693;28;20416;-55
2022/11/20 09:39:31;;;;;;;3.23;1.10;;;;;;;18.03;100.00;94910.25;5113457;28;20475;-55
2022/11/20 09:42:26;;;;;;;0.50;0.40;;;;;;;18.31;100.00;94893.31;5113364;28;20452;-56
2022/11/20 09:45:19;;;;;;;0.40;0.40;;;;;;;18.55;100.00;94883.81;5113358;28;20542;-56
2022/11/20 09:48:13;;;;;;;2.97;1.20;;;;;;;18.55;100.00;94886.50;5114000;28;20515;-56
2022/11/20 09:50:48;;;;;;;1.33;1.03;;;;;;;18.86;95.24;94873.41;5108614;28;20451;-56
2022/11/20 09:53:31;;;;;;;0.40;0.33;;;;;;;18.89;89.20;94878.13;5113260;28;20464;-56
2022/11/20 09:56:03;;;;;;;1.27;1.17;;;;;;;19.00;86.19;94882.75;5113231;28;20424;-56
2022/11/20 09:58:36;;;;;;;0.43;0.43;;;;;;;19.09;88.11;94879.97;5113221;28;20792;-56
2022/11/20 10:01:12;;;;;;;1.27;0.30;;;;;;;18.75;84.82;94877.63;5113362;28;20860;-56
2022/11/20 10:03:51;;;;;;;0.60;0.60;;;;;;;18.65;85.16;94873.47;5113014;28;20419;-56
2022/11/20 10:06:25;;;;;;;0.40;0.33;;;;;;;18.76;87.90;94874.63;5113103;28;20430;-56
2022/11/20 10:09:07;;;;;;;0.50;0.47;;;;;;;18.57;89.37;94863.59;5112907;28;20460;-56
2022/11/20 10:11:46;;;;;;;0.50;0.40;;;;;;;18.62;89.49;94852.66;5112853;28;20928;-56
2022/11/20 10:14:27;;;;;;;7.80;0.70;;;;;;;18.59;90.66;94844.47;5113264;28;20924;-56
2022/11/20 10:17:04;;;;;;;0.40;0.30;;;;;;;18.53;94.85;94838.53;5112824;28;20422;-56
2022/11/20 10:19:49;;;;;;;0.40;0.30;;;;;;;18.49;95.46;94832.28;5112783;28;20423;-56
2022/11/20 10:22:33;;;;;;;4.10;0.57;;;;;;;18.89;98.66;94848.59;5112500;28;20538;-56
2022/11/20 10:25:08;;;;;;;6.57;0.50;;;;;;;18.93;95.25;94839.53;5112445;28;20480;-56
2022/11/20 10:28:00;;;;;;;0.67;0.30;;;;;;;19.04;94.68;94845.28;5112540;28;20528;-56
2022/11/20 10:30:30;;;;;;;0.40;0.20;;;;;;;19.46;92.92;94829.75;5112501;28;20436;-56
2022/11/20 10:33:07;;;;;;;0.53;0.53;;;;;;;19.22;90.59;94776.78;5112517;28;20916;-56
2022/11/20 10:35:41;;;;;;;0.77;0.77;;;;;;;19.46;91.73;94829.75;5112480;28;20427;-56
2022/11/20 10:38:18;;;;;;;1.43;1.07;;;;;;;19.68;89.16;94836.59;5112965;28;20497;-56
2022/11/20 10:40:49;;;;;;;0.50;0.40;;;;;;;19.39;90.85;94835.69;5112833;28;20467;-55
2022/11/20 10:43:22;;;;;;;1.20;1.10;;;;;;;19.19;89.10;94819.66;5112622;28;20511;-56
2022/11/20 10:45:57;;;;;;;2.33;1.83;;;;;;;19.17;91.15;94817.31;5111922;28;20472;-56
2022/11/20 10:48:29;;;;;;;1.33;1.23;;;;;;;19.13;91.49;94808.34;5111901;28;20931;-56
2022/11/20 10:51:14;;;;;;;3.03;2.47;;;;;;;19.06;88.00;94804.63;5112506;28;20438;-55
2022/11/20 10:53:52;;;;;;;2.00;0.83;;;;;;;19.08;85.60;94803.19;5112016;28;20425;-56
2022/11/20 10:56:25;;;;;;;4.83;0.50;;;;;;;19.44;86.60;94811.28;5112116;28;20416;-56
2022/11/20 10:59:04;;;;;;;0.40;0.40;;;;;;;19.52;88.19;94812.28;5111939;28;20465;-56
2022/11/20 11:01:32;;;;;;;9.10;0.70;;;;;;;19.59;89.55;94807.91;5111968;28;20416;-54
2022/11/20 11:04:02;;;;;;;0.60;0.60;;;;;;;19.53;88.85;94805.81;5111823;28;20430;-55
2022/11/20 11:06:36;;;;;;;1.53;1.43;;;;;;;19.36;89.97;94809.47;5111763;28;20428;-55
2022/11/20 11:09:17;;;;;;;0.50;0.30;;;;;;;19.24;90.57;94798.72;5111881;28;20419;-55
2022/11/20 11:11:45;;;;;;;9.30;0.60;;;;;;;18.94;91.59;94802.72;5112136;28;20423;-55
2022/11/20 11:14:15;;;;;;;1.27;1.03;;;;;;;18.95;90.53;94799.69;5111745;28;20420;-55
2022/11/20 11:16:51;;;;;;;0.90;0.90;;;;;;;18.84;92.17;94782.47;5112000;28;20426;-55
2022/11/20 11:19:21;;;;;;;0.77;0.67;;;;;;;19.16;89.32;94796.13;5112236;28;20419;-55
2022/11/20 11:21:53;;;;;;;0.60;0.60;;;;;;;19.01;89.97;94778.78;5111954;28;20515;-56
2022/11/20 11:24:25;;;;;;;0.40;0.30;;;;;;;18.73;85.59;94794.75;5111853;28;20420;-55
2022/11/20 11:27:14;;;;;;;1.27;1.27;;;;;;;18.72;85.78;94781.66;5111420;28;20475;-56
2022/11/20 11:29:44;;;;;;;0.60;0.50;;;;;;;18.80;86.81;94781.56;5111476;28;20498;-56
2022/11/20 11:32:15;;;;;;;0.40;0.20;;;;;;;19.02;85.84;94783.06;5111807;28;20515;-56
2022/11/20 11:34:44;;;;;;;1.13;0.90;;;;;;;18.93;86.11;94785.81;5111830;28;20489;-55
2022/11/20 11:37:18;;;;;;;0.70;0.70;;;;;;;18.94;90.10;94792.78;5111482;28;20431;-55
2022/11/20 11:39:48;;;;;;;0.77;0.70;;;;;;;18.89;91.25;94794.91;5111724;28;20427;-55
2022/11/20 11:42:42;;;;;;;0.40;0.20;;;;;;;18.57;96.25;94796.50;5111361;28;20454;-56
2022/11/20 11:45:17;;;;;;;6.30;0.77;;;;;;;18.56;100.00;94794.94;5111393;28;20463;-57
2022/11/20 11:47:47;;;;;;;1.53;0.97;;;;;;;18.37;100.00;94805.34;5111282;28;20976;-56
2022/11/20 11:50:22;;;;;;;0.50;0.40;;;;;;;18.31;100.00;94795.94;5111707;28;20424;-56